createdAt,value
2022-12-19T20:24:16.580Z,54.13
2022-12-19T20:25:16.491Z,53.06
2022-12-19T20:26:16.512Z,52.01
2022-12-19T20:27:16.809Z,51.33
2022-12-19T20:28:16.004Z,50.74
2022-12-19T20:29:16.347Z,50.32
2022-12-19T20:30:15.738Z,49.93
2022-12-19T20:31:15.685Z,49.81
2022-12-19T20:32:15.405Z,49.73
2022-12-19T20:33:15.335Z,49.27
2022-12-19T20:34:15.329Z,49.28
2022-12-19T20:35:15.325Z,49.54
2022-12-19T20:36:15.649Z,49.22
2022-12-19T20:37:14.848Z,48.95
2022-12-19T20:38:16.670Z,49.33
2022-12-19T20:40:13.813Z,49.11
2022-12-19T20:41:13.728Z,50.29
2022-12-19T20:42:13.543Z,49.08
2022-12-19T20:43:13.325Z,48.97
2022-12-19T20:44:15.478Z,48.86
2022-12-19T20:45:12.844Z,48.65
2022-12-19T20:46:12.791Z,48.77
2022-12-19T20:47:12.544Z,48.90
2022-12-19T20:48:12.372Z,48.67
2022-12-19T20:49:12.135Z,48.97
2022-12-19T20:50:12.661Z,48.83
2022-12-19T20:51:11.845Z,48.63
2022-12-19T20:52:11.569Z,48.87
2022-12-19T20:53:11.340Z,48.77
2022-12-19T20:54:11.152Z,48.35
2022-12-19T21:13:21.094Z,54.02
2022-12-19T21:14:20.596Z,53.14
2022-12-19T21:15:21.044Z,52.23
2022-12-19T21:16:20.694Z,51.70
2022-12-19T21:17:20.615Z,51.28
2022-12-19T21:18:20.608Z,50.92
2022-12-19T21:19:19.601Z,50.79
2022-12-19T21:20:19.493Z,50.43
2022-12-19T21:23:01.925Z,51.67
2022-12-19T21:37:01.177Z,50.99
2022-12-19T21:48:00.229Z,46.05
2022-12-19T21:49:00.055Z,45.79
2022-12-19T21:50:59.739Z,45.75
2022-12-19T22:01:58.884Z,45.40
2022-12-19T22:08:57.952Z,45.56
2022-12-19T22:09:57.822Z,45.47
2022-12-19T22:10:58.128Z,45.59
2022-12-19T22:11:57.418Z,45.57
2022-12-19T22:12:57.644Z,45.54
2022-12-19T22:13:57.634Z,45.40
2022-12-19T22:14:58.162Z,45.60
2022-12-19T22:15:57.162Z,45.56
2022-12-19T22:16:57.116Z,45.62
2022-12-19T22:17:56.946Z,45.53
2022-12-19T22:18:56.982Z,45.56
2022-12-19T22:19:57.165Z,45.61
2022-12-19T22:20:56.674Z,45.54
2022-12-19T22:21:56.573Z,45.56
2022-12-19T22:22:57.209Z,45.70
2022-12-19T22:23:56.394Z,45.63
2022-12-19T22:24:56.188Z,45.67
2022-12-19T22:25:56.099Z,45.60
2022-12-19T22:26:55.980Z,45.61
2022-12-19T22:27:57.634Z,45.70
2022-12-19T22:28:56.839Z,45.58
2022-12-19T22:29:56.206Z,45.68
2022-12-19T22:30:55.646Z,45.66
2022-12-19T22:31:55.458Z,45.62
2022-12-19T22:32:55.313Z,45.68
2022-12-19T22:33:55.850Z,45.68
2022-12-19T22:34:55.240Z,45.76
2022-12-19T22:35:56.161Z,45.83
2022-12-19T22:36:55.160Z,45.86
2022-12-19T22:37:55.710Z,45.85
2022-12-19T22:38:54.837Z,45.97
2022-12-19T22:39:54.561Z,46.09
2022-12-19T22:40:54.440Z,46.00
2022-12-19T22:41:54.685Z,46.03
2022-12-19T22:42:54.680Z,45.95
2022-12-19T22:43:54.367Z,45.90
2022-12-19T22:44:54.057Z,45.93
2022-12-19T22:45:54.013Z,45.96
2022-12-19T22:46:54.281Z,46.06
2022-12-19T22:47:53.767Z,45.95
2022-12-19T22:48:56.781Z,45.96
2022-12-19T22:49:53.498Z,46.00
2022-12-19T22:50:53.412Z,46.10
2022-12-19T22:51:53.285Z,46.04
2022-12-19T22:52:53.217Z,46.05
2022-12-19T22:53:54.799Z,46.15
2022-12-19T22:54:54.751Z,46.07
2022-12-19T22:55:52.799Z,46.22
2022-12-19T22:56:52.702Z,46.11
2022-12-19T22:57:52.605Z,46.22
2022-12-19T22:58:53.227Z,46.13
2022-12-19T22:59:52.766Z,46.31
2022-12-19T23:00:52.235Z,46.29
2022-12-19T23:01:52.318Z,46.35
2022-12-19T23:02:52.394Z,46.35
2022-12-19T23:03:52.421Z,46.32
2022-12-19T23:04:52.242Z,46.22
2022-12-19T23:05:52.191Z,46.19
2022-12-19T23:06:51.540Z,46.25
2022-12-19T23:07:51.776Z,46.20
2022-12-19T23:08:51.784Z,46.17
2022-12-19T23:09:51.150Z,46.25
2022-12-19T23:10:51.063Z,46.30
2022-12-19T23:11:51.004Z,46.16
2022-12-19T23:12:51.387Z,46.33
2022-12-19T23:13:50.786Z,46.57
2022-12-19T23:14:50.588Z,46.39
2022-12-19T23:15:50.489Z,46.28
2022-12-19T23:16:50.412Z,46.27
2022-12-19T23:17:50.285Z,46.57
2022-12-19T23:18:53.256Z,46.35
2022-12-19T23:19:49.996Z,46.43
2022-12-19T23:20:49.887Z,46.39
2022-12-19T23:21:49.808Z,46.62
2022-12-19T23:22:49.804Z,46.49
2022-12-19T23:23:49.539Z,46.39
2022-12-19T23:24:49.404Z,46.40
2022-12-19T23:25:49.309Z,46.49
2022-12-19T23:26:50.767Z,46.68
2022-12-19T23:27:49.055Z,46.64
2022-12-19T23:28:48.923Z,46.49
2022-12-19T23:29:48.836Z,46.57
2022-12-19T23:30:49.244Z,46.49
2022-12-19T23:31:48.808Z,46.44
2022-12-19T23:32:50.874Z,46.54
2022-12-19T23:33:48.357Z,46.50
2022-12-19T23:34:48.273Z,46.44
2022-12-19T23:35:48.769Z,46.47
2022-12-19T23:37:49.309Z,46.40
2022-12-19T23:38:48.287Z,46.44
2022-12-19T23:39:48.276Z,46.46
2022-12-19T23:40:47.669Z,46.46
2022-12-19T23:41:47.606Z,46.59
2022-12-19T23:42:47.512Z,46.60
2022-12-19T23:43:47.807Z,46.50
2022-12-19T23:44:47.180Z,46.45
2022-12-19T23:45:47.807Z,46.54
2022-12-19T23:46:46.988Z,46.59
2022-12-19T23:47:46.805Z,46.56
2022-12-19T23:48:46.736Z,46.72
2022-12-19T23:49:46.601Z,46.60
2022-12-19T23:50:46.436Z,46.66
2022-12-19T23:51:46.331Z,46.55
2022-12-19T23:52:46.210Z,46.72
2022-12-19T23:53:47.656Z,46.71
2022-12-19T23:54:46.051Z,46.60
2022-12-19T23:55:45.850Z,46.59
2022-12-19T23:56:45.734Z,46.64
2022-12-19T23:57:46.273Z,46.64
2022-12-19T23:58:45.875Z,46.70
2022-12-19T23:59:46.176Z,46.68
